createdAt,value
2022-08-09T00:00:23.871Z,0.00
2022-08-09T00:01:15.576Z,0.00
2022-08-09T00:02:03.131Z,0.00
2022-08-09T00:02:53.075Z,0.00
2022-08-09T00:04:08.534Z,0.00
2022-08-09T00:04:35.540Z,0.00
2022-08-09T00:06:17.446Z,0.00
2022-08-09T00:06:19.737Z,0.00
2022-08-09T00:07:04.016Z,0.00
2022-08-09T00:07:54.431Z,0.00
2022-08-09T00:08:43.008Z,0.00
2022-08-09T00:09:32.985Z,0.00
2022-08-09T00:10:24.586Z,0.00
2022-08-09T00:11:25.055Z,0.00
2022-08-09T00:12:04.983Z,0.00
2022-08-09T00:12:53.353Z,0.00
2022-08-09T00:13:42.964Z,0.00
2022-08-09T00:14:36.308Z,0.00
2022-08-09T00:15:26.538Z,0.00
2022-08-09T00:16:13.905Z,0.00
2022-08-09T00:17:02.903Z,0.00
2022-08-09T00:18:05.660Z,0.00
2022-08-09T00:18:43.895Z,0.00
2022-08-09T00:19:34.135Z,0.00
2022-08-09T00:20:22.864Z,0.00
2022-08-09T00:21:13.351Z,0.00
2022-08-09T00:22:03.624Z,0.00
2022-08-09T00:22:52.844Z,0.00
2022-08-09T00:23:55.055Z,0.00
2022-08-09T00:24:33.823Z,0.00
2022-08-09T00:25:23.117Z,0.00
2022-08-09T00:26:13.803Z,0.00
2022-08-09T00:27:02.814Z,0.00
2022-08-09T00:27:52.775Z,0.00
2022-08-09T00:28:52.864Z,0.00
2022-08-09T00:30:10.289Z,0.00
2022-08-09T00:30:26.123Z,0.00
2022-08-09T00:31:57.354Z,0.00
2022-08-09T00:32:03.764Z,0.00
2022-08-09T00:32:52.733Z,0.00
2022-08-09T00:33:49.131Z,0.00
2022-08-09T00:34:33.740Z,0.00
2022-08-09T00:35:22.695Z,0.00
2022-08-09T00:36:12.682Z,0.00
2022-08-09T00:37:02.693Z,0.00
2022-08-09T00:37:52.671Z,0.00
2022-08-09T00:38:42.670Z,0.00
2022-08-09T00:40:12.571Z,0.00
2022-08-09T00:40:30.221Z,0.00
2022-08-09T00:44:08.089Z,0.00
2022-08-09T00:44:10.447Z,0.00
2022-08-09T00:44:11.447Z,0.00
2022-08-09T00:44:25.576Z,0.00
2022-08-09T00:44:33.955Z,0.00
2022-08-09T00:45:22.592Z,0.00
2022-08-09T00:46:28.459Z,0.00
2022-08-09T00:47:05.404Z,0.00
2022-08-09T00:47:52.580Z,0.00
2022-08-09T00:48:42.561Z,0.00
2022-08-09T00:49:33.543Z,0.00
2022-08-09T00:50:22.542Z,0.00
2022-08-09T00:51:13.023Z,0.00
2022-08-09T00:52:05.472Z,0.00
2022-08-09T00:52:52.515Z,0.00
2022-08-09T00:53:42.510Z,0.00
2022-08-09T00:54:35.862Z,0.00
2022-08-09T00:56:03.326Z,0.00
2022-08-09T00:56:13.471Z,0.00
2022-08-09T00:57:02.464Z,0.00
2022-08-09T00:57:53.441Z,0.00
2022-08-09T00:58:43.442Z,0.00
2022-08-09T00:59:41.378Z,0.00
2022-08-09T01:00:23.536Z,0.00
2022-08-09T01:01:16.185Z,0.00
2022-08-09T01:02:02.426Z,0.00
2022-08-09T01:02:52.417Z,0.00
2022-08-09T01:03:46.199Z,0.00
2022-08-09T01:04:32.382Z,0.00
2022-08-09T01:05:22.494Z,0.00
2022-08-09T01:06:17.622Z,0.00
2022-08-09T01:07:03.680Z,0.00
2022-08-09T01:08:00.538Z,0.00
2022-08-09T01:08:49.392Z,0.00
2022-08-09T01:09:35.860Z,0.00
2022-08-09T01:10:22.318Z,0.00
2022-08-09T01:11:15.279Z,0.00
2022-08-09T01:12:02.309Z,0.00
2022-08-09T01:12:52.686Z,0.00
2022-08-09T01:13:58.962Z,0.00
2022-08-09T01:14:33.251Z,0.00
2022-08-09T01:15:22.260Z,0.00
2022-08-09T01:16:12.957Z,0.00
2022-08-09T01:17:02.244Z,0.00
2022-08-09T01:17:52.237Z,0.00
2022-08-09T01:18:47.688Z,0.00
2022-08-09T01:19:42.759Z,0.00
2022-08-09T01:20:23.490Z,0.00
2022-08-09T01:21:12.180Z,0.00
2022-08-09T01:22:02.188Z,0.00
2022-08-09T01:22:54.800Z,0.00
2022-08-09T01:24:03.012Z,0.00
2022-08-09T01:24:33.179Z,0.00
2022-08-09T01:25:22.214Z,0.00
2022-08-09T01:26:12.141Z,0.00
2022-08-09T01:27:02.160Z,0.00
2022-08-09T01:27:52.220Z,0.00
2022-08-09T01:28:42.100Z,0.00
2022-08-09T01:29:41.249Z,0.00
2022-08-09T01:30:28.731Z,0.00
2022-08-09T01:31:23.455Z,0.00
2022-08-09T01:32:30.834Z,0.00
2022-08-09T01:32:53.050Z,0.00
2022-08-09T01:33:42.058Z,0.00
2022-08-09T01:34:32.047Z,0.00
2022-08-09T01:35:37.877Z,0.00
2022-08-09T01:36:13.617Z,0.00
2022-08-09T01:37:02.009Z,0.00
2022-08-09T01:38:08.105Z,0.00
2022-08-09T01:38:44.274Z,0.00
2022-08-09T01:39:32.007Z,0.00
2022-08-09T01:40:22.901Z,0.00
2022-08-09T01:41:12.969Z,0.00
2022-08-09T01:42:07.992Z,0.00
2022-08-09T01:42:52.938Z,0.00
2022-08-09T01:43:51.515Z,0.00
2022-08-09T01:44:32.917Z,0.00
2022-08-09T01:45:21.917Z,0.00
2022-08-09T01:46:11.919Z,0.00
2022-08-09T01:47:02.917Z,0.00
2022-08-09T01:47:51.888Z,0.00
2022-08-09T01:48:41.896Z,0.00
2022-08-09T01:49:39.014Z,0.00
2022-08-09T01:50:30.006Z,0.00
2022-08-09T01:51:12.869Z,0.00
2022-08-09T01:52:07.461Z,0.00
2022-08-09T01:52:52.828Z,0.00
2022-08-09T01:53:41.932Z,0.00
2022-08-09T01:54:32.956Z,0.00
2022-08-09T01:55:21.826Z,0.00
2022-08-09T01:56:11.815Z,0.00
2022-08-09T01:57:03.960Z,0.00
2022-08-09T01:57:52.989Z,0.00
2022-08-09T01:58:41.775Z,0.00
2022-08-09T01:59:32.460Z,0.00
2022-08-09T02:00:35.734Z,0.00
2022-08-09T02:01:18.404Z,0.00
2022-08-09T02:02:02.773Z,0.00
2022-08-09T02:02:51.753Z,0.00
2022-08-09T02:03:41.726Z,0.00
2022-08-09T02:04:31.701Z,0.00
2022-08-09T02:05:21.696Z,0.00
2022-08-09T02:06:12.683Z,0.00
2022-08-09T02:07:02.541Z,0.00
2022-08-09T02:08:38.949Z,0.00
2022-08-09T02:08:58.883Z,0.00
2022-08-09T02:09:41.970Z,0.00
2022-08-09T02:10:30.172Z,0.00
2022-08-09T02:11:16.758Z,0.00
2022-08-09T02:12:02.635Z,0.00
2022-08-09T02:12:51.623Z,0.00
2022-08-09T02:13:41.604Z,0.00
2022-08-09T02:14:31.595Z,0.00
2022-08-09T02:15:21.603Z,0.00
2022-08-09T02:16:12.572Z,0.00
2022-08-09T02:17:59.983Z,0.00
2022-08-09T02:18:01.271Z,0.00
2022-08-09T02:18:42.735Z,0.00
2022-08-09T02:19:38.812Z,0.00
2022-08-09T02:20:26.221Z,0.00
2022-08-09T02:21:11.527Z,0.00
2022-08-09T02:22:02.522Z,0.00
2022-08-09T02:22:51.494Z,0.00
2022-08-09T02:23:42.952Z,0.00
2022-08-09T02:24:31.475Z,0.00
2022-08-09T02:25:21.502Z,0.00
2022-08-09T02:26:25.055Z,0.00
2022-08-09T02:27:02.464Z,0.00
2022-08-09T02:27:58.246Z,0.00
2022-08-09T02:28:42.789Z,0.00
2022-08-09T02:29:31.434Z,0.00
2022-08-09T02:30:21.416Z,0.00
2022-08-09T02:31:11.402Z,0.00
2022-08-09T02:32:01.425Z,0.00
2022-08-09T02:32:51.425Z,0.00
2022-08-09T02:34:06.871Z,0.00
2022-08-09T02:34:40.475Z,0.00
2022-08-09T02:35:26.088Z,0.00
2022-08-09T02:36:12.364Z,0.00
2022-08-09T02:37:01.341Z,0.00
2022-08-09T02:37:51.362Z,0.00
2022-08-09T02:38:41.334Z,0.00
2022-08-09T02:39:33.991Z,0.00
2022-08-09T02:40:26.812Z,0.00
2022-08-09T02:41:11.302Z,0.00
2022-08-09T02:42:01.290Z,0.00
2022-08-09T02:42:51.399Z,0.00
2022-08-09T02:43:47.789Z,0.00
2022-08-09T02:44:32.272Z,0.00
2022-08-09T02:45:21.249Z,0.00
2022-08-09T02:46:12.233Z,0.00
2022-08-09T02:47:01.251Z,0.00
2022-08-09T02:47:58.911Z,0.00
2022-08-09T02:48:46.230Z,0.00
2022-08-09T02:49:38.348Z,0.00
2022-08-09T02:50:22.203Z,0.00
2022-08-09T02:51:11.181Z,0.00
2022-08-09T02:52:01.177Z,0.00
2022-08-09T02:52:55.111Z,0.00
2022-08-09T02:53:43.127Z,0.00
2022-08-09T02:54:32.143Z,0.00
2022-08-09T02:55:21.465Z,0.00
2022-08-09T02:56:11.132Z,0.00
2022-08-09T02:57:01.144Z,0.00
2022-08-09T02:58:00.358Z,0.00
2022-08-09T02:58:42.121Z,0.00
2022-08-09T02:59:36.589Z,0.00
2022-08-09T03:00:25.973Z,0.00
2022-08-09T03:01:15.157Z,0.00
2022-08-09T03:02:05.730Z,0.00
2022-08-09T03:03:00.274Z,0.00
2022-08-09T03:04:16.963Z,0.00
2022-08-09T03:04:32.041Z,0.00
2022-08-09T03:05:21.032Z,0.00
2022-08-09T03:06:11.011Z,0.00
2022-08-09T03:07:12.553Z,0.00
2022-08-09T03:07:55.032Z,0.00
2022-08-09T03:08:41.024Z,0.00
2022-08-09T03:09:33.581Z,0.00
2022-08-09T03:10:20.971Z,0.00
2022-08-09T03:11:10.951Z,0.00
2022-08-09T03:12:06.473Z,0.00
2022-08-09T03:12:52.729Z,0.00
2022-08-09T03:13:43.618Z,0.00
2022-08-09T03:14:32.041Z,0.00
2022-08-09T03:15:21.413Z,0.00
2022-08-09T03:16:10.953Z,0.00
2022-08-09T03:17:01.904Z,0.00
2022-08-09T03:17:54.010Z,0.00
2022-08-09T03:18:42.262Z,0.00
2022-08-09T03:19:58.371Z,0.00
2022-08-09T03:20:21.870Z,0.00
2022-08-09T03:21:10.880Z,0.00
2022-08-09T03:22:03.172Z,0.00
2022-08-09T03:22:56.931Z,0.00
2022-08-09T03:23:41.839Z,0.00
2022-08-09T03:24:42.379Z,0.00
2022-08-09T03:25:56.869Z,0.00
2022-08-09T03:26:11.820Z,0.00
2022-08-09T03:27:00.799Z,0.00
2022-08-09T03:27:50.790Z,0.00
2022-08-09T03:28:40.768Z,0.00
2022-08-09T03:29:30.749Z,0.00
2022-08-09T03:30:30.107Z,0.00
2022-08-09T03:31:22.518Z,0.00
2022-08-09T03:32:01.749Z,0.00
2022-08-09T03:32:50.760Z,0.00
2022-08-09T03:33:53.104Z,0.00
2022-08-09T03:34:31.708Z,0.00
2022-08-09T03:35:24.205Z,0.00
2022-08-09T03:36:12.760Z,0.00
2022-08-09T03:37:02.466Z,0.00
2022-08-09T03:37:55.754Z,0.00
2022-08-09T03:38:43.117Z,0.00
2022-08-09T03:39:38.099Z,0.00
2022-08-09T03:40:21.660Z,0.00
2022-08-09T03:41:11.767Z,4.00
2022-08-09T03:42:06.031Z,4.00
2022-08-09T03:42:51.658Z,0.00
2022-08-09T03:43:40.597Z,4.00
2022-08-09T03:44:31.954Z,4.00
2022-08-09T03:46:05.234Z,0.00
2022-08-09T03:46:20.666Z,4.00
2022-08-09T03:47:01.589Z,8.00
2022-08-09T03:47:50.579Z,4.00
2022-08-09T03:48:42.939Z,4.00
2022-08-09T03:49:35.580Z,8.00
2022-08-09T03:50:27.980Z,8.00
2022-08-09T03:51:55.184Z,8.00
2022-08-09T03:52:03.640Z,12.00
2022-08-09T03:52:50.517Z,12.00
2022-08-09T03:53:40.489Z,16.00
2022-08-09T03:54:31.391Z,20.00
2022-08-09T03:55:20.468Z,20.00
2022-08-09T03:56:10.477Z,20.00
2022-08-09T03:57:00.477Z,28.00
2022-08-09T03:58:03.367Z,32.00
2022-08-09T03:58:41.437Z,36.00
2022-08-09T03:59:43.111Z,36.00
2022-08-09T04:00:21.428Z,44.00
2022-08-09T04:01:10.496Z,44.00
2022-08-09T04:02:00.401Z,56.00
2022-08-09T04:02:52.752Z,60.00
2022-08-09T04:04:01.508Z,68.00
2022-08-09T04:04:36.072Z,76.00
2022-08-09T04:05:27.620Z,80.00
2022-08-09T04:06:11.857Z,88.00
2022-08-09T04:07:00.336Z,96.00
2022-08-09T04:07:56.946Z,108.00
2022-08-09T04:08:41.343Z,116.00
2022-08-09T04:09:47.824Z,128.00
2022-08-09T04:10:21.305Z,140.00
2022-08-09T04:11:11.329Z,152.00
2022-08-09T04:12:00.277Z,160.00
2022-08-09T04:12:50.956Z,176.00
2022-08-09T04:14:37.024Z,188.00
2022-08-09T04:14:53.710Z,204.00
2022-08-09T04:15:38.768Z,216.00
2022-08-09T04:16:19.491Z,232.00
2022-08-09T04:17:01.245Z,248.00
2022-08-09T04:17:50.235Z,264.00
2022-08-09T04:18:40.206Z,280.00
2022-08-09T04:19:50.882Z,296.00
2022-08-09T04:20:21.204Z,316.00
2022-08-09T04:21:10.184Z,332.00
2022-08-09T04:22:00.185Z,348.00
2022-08-09T04:22:50.490Z,364.00
2022-08-09T04:23:40.164Z,384.00
2022-08-09T04:24:31.164Z,400.00
2022-08-09T04:25:20.150Z,420.00
2022-08-09T04:26:10.144Z,444.00
2022-08-09T04:27:00.124Z,460.00
2022-08-09T04:27:50.114Z,476.00
2022-08-09T04:28:42.391Z,496.00
2022-08-09T04:29:31.094Z,516.00
2022-08-09T04:30:20.879Z,536.00
2022-08-09T04:31:10.304Z,556.00
2022-08-09T04:32:00.076Z,576.00
2022-08-09T04:32:50.091Z,596.00
2022-08-09T04:33:52.308Z,612.00
2022-08-09T04:34:32.020Z,632.00
2022-08-09T04:35:21.873Z,652.00
2022-08-09T04:36:10.021Z,668.00
2022-08-09T04:37:00.022Z,688.00
2022-08-09T04:37:50.034Z,708.00
2022-08-09T04:38:39.991Z,724.00
2022-08-09T04:39:31.252Z,744.00
2022-08-09T04:40:35.925Z,764.00
2022-08-09T04:41:11.949Z,780.00
2022-08-09T04:42:02.815Z,800.00
2022-08-09T04:42:49.951Z,816.00
2022-08-09T04:43:51.057Z,836.00
2022-08-09T04:44:30.922Z,852.00
2022-08-09T04:45:20.569Z,868.00
2022-08-09T04:46:09.919Z,884.00
2022-08-09T04:47:04.217Z,900.00
2022-08-09T04:47:58.564Z,920.00
2022-08-09T04:48:40.881Z,932.00
2022-08-09T04:49:53.736Z,948.00
2022-08-09T04:50:20.852Z,964.00
2022-08-09T04:51:10.861Z,980.00
2022-08-09T04:51:59.861Z,996.00
2022-08-09T04:52:49.840Z,1008.00
2022-08-09T04:53:39.819Z,1024.00
2022-08-09T04:54:29.821Z,1040.00
2022-08-09T04:55:19.817Z,1052.00
2022-08-09T04:56:09.792Z,1068.00
2022-08-09T04:56:59.782Z,1080.00
2022-08-09T04:57:59.150Z,1092.00
2022-08-09T04:58:40.781Z,1108.00
2022-08-09T04:59:30.014Z,1120.00
2022-08-09T05:00:19.739Z,1132.00
2022-08-09T05:01:16.473Z,1144.00
2022-08-09T05:02:02.897Z,1160.00
2022-08-09T05:02:52.956Z,1172.00
2022-08-09T05:03:43.316Z,1184.00
2022-08-09T05:04:31.267Z,1196.00
2022-08-09T05:05:32.063Z,1204.00
2022-08-09T05:06:10.691Z,1216.00
2022-08-09T05:06:59.680Z,1224.00
2022-08-09T05:07:49.666Z,1236.00
2022-08-09T05:08:39.660Z,1248.00
2022-08-09T05:09:42.079Z,1260.00
2022-08-09T05:10:20.639Z,1272.00
2022-08-09T05:11:09.639Z,1280.00
2022-08-09T05:11:59.637Z,1296.00
2022-08-09T05:12:49.648Z,1304.00
2022-08-09T05:13:39.590Z,1316.00
2022-08-09T05:14:29.609Z,1328.00
2022-08-09T05:15:24.722Z,1336.00
2022-08-09T05:16:10.578Z,1344.00
2022-08-09T05:16:59.786Z,1352.00
2022-08-09T05:18:37.907Z,1364.00
2022-08-09T05:18:57.381Z,1372.00
2022-08-09T05:19:38.395Z,1380.00
2022-08-09T05:20:20.538Z,1388.00
2022-08-09T05:21:23.234Z,1400.00
2022-08-09T05:22:00.538Z,1408.00
2022-08-09T05:23:54.028Z,1428.00
2022-08-09T05:23:54.697Z,1420.00
2022-08-09T05:24:30.492Z,1436.00
2022-08-09T05:25:19.489Z,1444.00
2022-08-09T05:26:09.488Z,1452.00
2022-08-09T05:27:00.486Z,1460.00
2022-08-09T05:27:49.449Z,1468.00
2022-08-09T05:28:39.446Z,1476.00
2022-08-09T05:29:31.642Z,1484.00
2022-08-09T05:30:20.409Z,1496.00
2022-08-09T05:31:10.068Z,1504.00
2022-08-09T05:31:59.459Z,1512.00
2022-08-09T05:32:50.758Z,1520.00
2022-08-09T05:33:42.389Z,1524.00
2022-08-09T05:34:30.661Z,1536.00
2022-08-09T05:35:21.796Z,1544.00
2022-08-09T05:36:09.348Z,1552.00
2022-08-09T05:37:01.754Z,1556.00
2022-08-09T05:37:50.107Z,1560.00
2022-08-09T05:38:39.415Z,1572.00
2022-08-09T05:39:36.507Z,1580.00
2022-08-09T05:40:20.366Z,1584.00
2022-08-09T05:41:12.771Z,1592.00
2022-08-09T05:42:01.482Z,1596.00
2022-08-09T05:42:49.283Z,1600.00
2022-08-09T05:43:39.310Z,1608.00
2022-08-09T05:44:32.889Z,1616.00
2022-08-09T05:45:19.256Z,1624.00
2022-08-09T05:46:10.255Z,1632.00
2022-08-09T05:46:59.255Z,1636.00
2022-08-09T05:47:52.242Z,1644.00
2022-08-09T05:48:39.209Z,1652.00
2022-08-09T05:49:51.640Z,1656.00
2022-08-09T05:50:31.908Z,1664.00
2022-08-09T05:51:30.054Z,1672.00
2022-08-09T05:52:00.184Z,1676.00
2022-08-09T05:52:53.810Z,1680.00
2022-08-09T05:53:56.846Z,1684.00
2022-08-09T05:54:30.145Z,1692.00
2022-08-09T05:55:21.163Z,1692.00
2022-08-09T05:56:09.136Z,1696.00
2022-08-09T05:57:00.136Z,1704.00
2022-08-09T05:57:51.383Z,1708.00
2022-08-09T05:58:40.114Z,1712.00
2022-08-09T05:59:29.114Z,1720.00
2022-08-09T06:00:19.075Z,1720.00
2022-08-09T06:01:09.084Z,1724.00
2022-08-09T06:02:00.086Z,1732.00
2022-08-09T06:02:49.192Z,1736.00
2022-08-09T06:03:43.995Z,1740.00
2022-08-09T06:04:34.545Z,1724.00
2022-08-09T06:05:20.033Z,1752.00
2022-08-09T06:06:10.034Z,1752.00
2022-08-09T06:06:59.003Z,1756.00
2022-08-09T06:08:05.540Z,1756.00
2022-08-09T06:08:40.013Z,1760.00
2022-08-09T06:09:54.856Z,1764.00
2022-08-09T06:10:19.975Z,1768.00
2022-08-09T06:11:17.619Z,1772.00
2022-08-09T06:11:59.962Z,1772.00
2022-08-09T06:12:50.429Z,1776.00
2022-08-09T06:13:39.941Z,1776.00
2022-08-09T06:14:28.923Z,1780.00
2022-08-09T06:15:18.913Z,1784.00
2022-08-09T06:16:08.914Z,1788.00
2022-08-09T06:16:58.903Z,1788.00
2022-08-09T06:17:49.891Z,1792.00
2022-08-09T06:18:38.893Z,1796.00
2022-08-09T06:19:28.894Z,1796.00
2022-08-09T06:20:18.853Z,1800.00
2022-08-09T06:21:08.851Z,1804.00
2022-08-09T06:21:59.155Z,1804.00
2022-08-09T06:22:48.842Z,1808.00
2022-08-09T06:23:55.815Z,1812.00
2022-08-09T06:24:29.842Z,1816.00
2022-08-09T06:25:18.832Z,1816.00
2022-08-09T06:26:08.794Z,1820.00
2022-08-09T06:26:58.823Z,1824.00
2022-08-09T06:27:51.393Z,1828.00
2022-08-09T06:28:38.773Z,1832.00
2022-08-09T06:29:28.760Z,1828.00
2022-08-09T06:30:18.750Z,1832.00
2022-08-09T06:31:08.752Z,1832.00
2022-08-09T06:32:08.537Z,1836.00
2022-08-09T06:32:53.082Z,1840.00
2022-08-09T06:33:42.153Z,1844.00
2022-08-09T06:34:30.654Z,1848.00
2022-08-09T06:35:18.702Z,1852.00
2022-08-09T06:36:08.686Z,1852.00
2022-08-09T06:36:59.597Z,1852.00
2022-08-09T06:37:52.761Z,1856.00
2022-08-09T06:38:39.668Z,1856.00
2022-08-09T06:39:48.853Z,1860.00
2022-08-09T06:40:23.848Z,1864.00
2022-08-09T06:41:18.852Z,1864.00
2022-08-09T06:42:08.742Z,1864.00
2022-08-09T06:42:49.639Z,1868.00
2022-08-09T06:43:38.621Z,1868.00
2022-08-09T06:44:28.613Z,1868.00
2022-08-09T06:46:07.908Z,1872.00
2022-08-09T06:46:10.878Z,1872.00
2022-08-09T06:46:58.577Z,1876.00
2022-08-09T06:47:48.550Z,1880.00
2022-08-09T06:48:43.150Z,1880.00
2022-08-09T06:49:44.752Z,1884.00
2022-08-09T06:50:19.547Z,1884.00
2022-08-09T06:51:08.738Z,1884.00
2022-08-09T06:51:58.523Z,1888.00
2022-08-09T06:52:49.039Z,1888.00
2022-08-09T06:53:38.849Z,1892.00
2022-08-09T06:54:28.478Z,1892.00
2022-08-09T06:55:18.489Z,1896.00
2022-08-09T06:56:09.318Z,1896.00
2022-08-09T06:56:58.460Z,1900.00
2022-08-09T06:58:03.429Z,1900.00
2022-08-09T07:00:46.607Z,1904.00
2022-08-09T07:00:50.664Z,1908.00
2022-08-09T07:00:54.358Z,1904.00
2022-08-09T07:01:09.400Z,1908.00
2022-08-09T07:02:03.456Z,1912.00
2022-08-09T07:02:49.513Z,1916.00
2022-08-09T07:03:39.322Z,1920.00
2022-08-09T07:04:28.390Z,1920.00
2022-08-09T07:05:18.359Z,1924.00
2022-08-09T07:06:08.353Z,1924.00
2022-08-09T07:06:59.927Z,1928.00
2022-08-09T07:08:00.524Z,1936.00
2022-08-09T07:08:39.620Z,1936.00
2022-08-09T07:09:56.534Z,1940.00
2022-08-09T07:10:29.630Z,1944.00
2022-08-09T07:11:12.569Z,1948.00
2022-08-09T07:11:58.304Z,1944.00
2022-08-09T07:12:57.068Z,1948.00
2022-08-09T07:13:45.315Z,1952.00
2022-08-09T07:14:29.258Z,1952.00
2022-08-09T07:16:38.752Z,1956.00
2022-08-09T07:16:41.165Z,1956.00
2022-08-09T07:16:59.248Z,1964.00
2022-08-09T07:17:56.301Z,1960.00
2022-08-09T07:18:39.231Z,1964.00
2022-08-09T07:19:28.189Z,1964.00
2022-08-09T07:20:18.200Z,1968.00
2022-08-09T07:21:08.392Z,1972.00
2022-08-09T07:21:59.827Z,1972.00
2022-08-09T07:22:53.487Z,1976.00
2022-08-09T07:23:46.706Z,1976.00
2022-08-09T07:24:32.172Z,1980.00
2022-08-09T07:25:19.127Z,1980.00
2022-08-09T07:26:08.117Z,1984.00
2022-08-09T07:26:58.128Z,1984.00
2022-08-09T07:27:53.228Z,1988.00
2022-08-09T07:28:39.087Z,1988.00
2022-08-09T07:29:37.753Z,1988.00
2022-08-09T07:30:19.086Z,1992.00
2022-08-09T07:31:08.080Z,1996.00
2022-08-09T07:31:58.082Z,1996.00
2022-08-09T07:32:48.038Z,2000.00
2022-08-09T07:33:52.586Z,2000.00
2022-08-09T07:34:29.017Z,2004.00
2022-08-09T07:35:18.031Z,2008.00
2022-08-09T07:36:08.000Z,2008.00
2022-08-09T07:36:57.997Z,2008.00
2022-08-09T07:37:49.356Z,2012.00
2022-08-09T07:38:38.005Z,2016.00
2022-08-09T07:39:40.213Z,2020.00
2022-08-09T07:40:20.498Z,2020.00
2022-08-09T07:41:12.079Z,2020.00
2022-08-09T07:41:57.976Z,2020.00
2022-08-09T07:42:47.939Z,2024.00
2022-08-09T07:43:40.993Z,2028.00
2022-08-09T07:44:33.100Z,2036.00
2022-08-09T07:45:33.272Z,2036.00
2022-08-09T07:46:08.906Z,2036.00
2022-08-09T07:46:57.897Z,2032.00
2022-08-09T07:48:00.575Z,2012.00
2022-08-09T07:48:39.128Z,2036.00
2022-08-09T07:49:27.866Z,2036.00
2022-08-09T07:50:17.865Z,2040.00
2022-08-09T07:52:02.701Z,2048.00
2022-08-09T07:52:04.545Z,2052.00
2022-08-09T07:52:48.837Z,2052.00
2022-08-09T07:54:05.118Z,2056.00
2022-08-09T07:54:30.232Z,2056.00
2022-08-09T07:55:17.815Z,2056.00
2022-08-09T07:56:07.818Z,2040.00
2022-08-09T07:56:58.841Z,2044.00
2022-08-09T07:57:47.776Z,2060.00
2022-08-09T07:58:37.770Z,2056.00
2022-08-09T07:59:45.931Z,2044.00
2022-08-09T08:00:20.190Z,2052.00
2022-08-09T08:01:11.109Z,2060.00
2022-08-09T08:01:57.799Z,2060.00
2022-08-09T08:02:48.028Z,2064.00
2022-08-09T08:03:37.719Z,2068.00
2022-08-09T08:04:31.501Z,2064.00
2022-08-09T08:05:19.000Z,2080.00
2022-08-09T08:06:07.675Z,2072.00
2022-08-09T08:07:00.166Z,2080.00
2022-08-09T08:08:44.626Z,2088.00
2022-08-09T08:09:00.759Z,2096.00
2022-08-09T08:09:35.553Z,2092.00
2022-08-09T08:10:18.647Z,2100.00
2022-08-09T08:12:09.740Z,2100.00
2022-08-09T08:12:12.144Z,2120.00
2022-08-09T08:12:48.635Z,2116.00
2022-08-09T08:13:41.286Z,2120.00
2022-08-09T08:14:28.584Z,2124.00
2022-08-09T08:15:17.673Z,2132.00
2022-08-09T08:16:07.578Z,2132.00
2022-08-09T08:17:07.602Z,2132.00
2022-08-09T08:17:54.636Z,2136.00
2022-08-09T08:18:38.537Z,2136.00
2022-08-09T08:19:31.114Z,2140.00
2022-08-09T08:20:17.524Z,2144.00
2022-08-09T08:21:07.518Z,2152.00
2022-08-09T08:21:57.528Z,2152.00
2022-08-09T08:22:48.482Z,2148.00
2022-08-09T08:23:37.497Z,2156.00
2022-08-09T08:24:40.255Z,2152.00
2022-08-09T08:25:19.423Z,2144.00
2022-08-09T08:26:11.387Z,2152.00
2022-08-09T08:26:57.448Z,2148.00
2022-08-09T08:27:49.953Z,2160.00
2022-08-09T08:28:37.437Z,2160.00
2022-08-09T08:29:28.634Z,2164.00
2022-08-09T08:30:18.408Z,2164.00
2022-08-09T08:31:14.383Z,2144.00
2022-08-09T08:32:04.517Z,2152.00
2022-08-09T08:32:53.595Z,2168.00
2022-08-09T08:33:53.114Z,2172.00
2022-08-09T08:34:28.358Z,2164.00
2022-08-09T08:35:18.112Z,2168.00
2022-08-09T08:36:07.359Z,2180.00
2022-08-09T08:36:57.355Z,2188.00
2022-08-09T08:37:59.966Z,2192.00
2022-08-09T08:38:38.318Z,2172.00
2022-08-09T08:39:27.375Z,2176.00
2022-08-09T08:40:17.307Z,2176.00
2022-08-09T08:41:07.307Z,2168.00
2022-08-09T08:41:58.712Z,2192.00
2022-08-09T08:42:47.601Z,2196.00
2022-08-09T08:43:37.278Z,2216.00
2022-08-09T08:44:29.218Z,2204.00
2022-08-09T08:45:17.238Z,2208.00
2022-08-09T08:46:24.889Z,2220.00
2022-08-09T08:47:02.220Z,2220.00
2022-08-09T08:47:48.229Z,2224.00
2022-08-09T08:48:37.211Z,2216.00
2022-08-09T08:49:38.570Z,2224.00
2022-08-09T08:50:18.724Z,2228.00
2022-08-09T08:51:07.189Z,2232.00
2022-08-09T08:52:01.909Z,2220.00
2022-08-09T08:52:57.683Z,2240.00
2022-08-09T08:53:38.159Z,2256.00
2022-08-09T08:54:30.129Z,2244.00
2022-08-09T08:55:19.067Z,2260.00
2022-08-09T08:56:08.130Z,2272.00
2022-08-09T08:56:58.129Z,2240.00
2022-08-09T08:57:57.141Z,2240.00
2022-08-09T08:58:38.098Z,2256.00
2022-08-09T08:59:28.168Z,2268.00
2022-08-09T09:00:28.002Z,2264.00
2022-08-09T09:01:09.088Z,2272.00
2022-08-09T09:01:59.809Z,2272.00
2022-08-09T09:02:52.231Z,2284.00
2022-08-09T09:03:38.314Z,2280.00
2022-08-09T09:04:27.609Z,2296.00
2022-08-09T09:05:17.020Z,2296.00
2022-08-09T09:06:09.667Z,2296.00
2022-08-09T09:06:57.020Z,2316.00
2022-08-09T09:07:47.020Z,2340.00
2022-08-09T09:08:40.359Z,2344.00
2022-08-09T09:09:57.931Z,2348.00
2022-08-09T09:10:17.979Z,2340.00
2022-08-09T09:11:06.958Z,2328.00
2022-08-09T09:11:58.120Z,2344.00
2022-08-09T09:12:46.939Z,2324.00
2022-08-09T09:13:55.214Z,2332.00
2022-08-09T09:14:27.930Z,2332.00
2022-08-09T09:15:28.064Z,2348.00
2022-08-09T09:16:08.031Z,2348.00
2022-08-09T09:16:56.900Z,2364.00
2022-08-09T09:17:48.995Z,2352.00
2022-08-09T09:18:37.898Z,2332.00
2022-08-09T09:19:40.807Z,2344.00
2022-08-09T09:20:17.850Z,2352.00
2022-08-09T09:21:06.840Z,2360.00
2022-08-09T09:21:58.110Z,2352.00
2022-08-09T09:22:46.839Z,2348.00
2022-08-09T09:23:37.972Z,2360.00
2022-08-09T09:24:26.828Z,2392.00
2022-08-09T09:26:02.221Z,2376.00
2022-08-09T09:26:12.431Z,2400.00
2022-08-09T09:26:57.791Z,2372.00
2022-08-09T09:28:05.245Z,2360.00
2022-08-09T09:29:02.405Z,2376.00
2022-08-09T09:29:36.765Z,2400.00
2022-08-09T09:30:38.171Z,2396.00
2022-08-09T09:31:07.729Z,2404.00
2022-08-09T09:32:06.203Z,2424.00
2022-08-09T09:32:47.710Z,2424.00
2022-08-09T09:33:44.925Z,2444.00
2022-08-09T09:34:29.039Z,2428.00
2022-08-09T09:35:17.860Z,2436.00
2022-08-09T09:36:19.923Z,2432.00
2022-08-09T09:36:57.662Z,2416.00
2022-08-09T09:37:46.651Z,2460.00
2022-08-09T09:38:37.202Z,2480.00
2022-08-09T09:39:54.998Z,2500.00
2022-08-09T09:40:17.990Z,2460.00
2022-08-09T09:41:06.629Z,2460.00
2022-08-09T09:41:56.626Z,2480.00
2022-08-09T09:42:46.630Z,2460.00
2022-08-09T09:43:41.366Z,2484.00
2022-08-09T09:44:31.509Z,2484.00
2022-08-09T09:45:26.554Z,2504.00
2022-08-09T09:46:57.635Z,2500.00
2022-08-09T09:47:48.089Z,2536.00
2022-08-09T09:48:37.541Z,2536.00
2022-08-09T09:49:56.275Z,2528.00
2022-08-09T09:50:17.736Z,2504.00
2022-08-09T09:51:07.522Z,2552.00
2022-08-09T09:51:57.525Z,2564.00
2022-08-09T09:52:53.901Z,2572.00
2022-08-09T09:53:57.245Z,2584.00
2022-08-09T09:54:27.462Z,2600.00
2022-08-09T09:55:31.204Z,2596.00
2022-08-09T09:56:07.472Z,2620.00
2022-08-09T09:58:02.227Z,2660.00
2022-08-09T09:58:02.688Z,2632.00
2022-08-09T09:58:37.459Z,2672.00
2022-08-09T09:59:35.159Z,2668.00
2022-08-09T10:00:17.411Z,2668.00
2022-08-09T10:01:06.411Z,2656.00
2022-08-09T10:01:57.412Z,2668.00
2022-08-09T10:02:46.393Z,2684.00
2022-08-09T10:03:36.425Z,2684.00
2022-08-09T10:04:30.993Z,2660.00
2022-08-09T10:05:27.136Z,2672.00
2022-08-09T10:06:07.360Z,2664.00
2022-08-09T10:06:56.332Z,2684.00
2022-08-09T10:08:11.082Z,2700.00
2022-08-09T10:08:54.130Z,2704.00
2022-08-09T10:09:27.322Z,2700.00
2022-08-09T10:10:18.574Z,2704.00
2022-08-09T10:11:53.709Z,2700.00
2022-08-09T10:12:11.435Z,2680.00
2022-08-09T10:12:52.010Z,2704.00
2022-08-09T10:13:43.088Z,2780.00
2022-08-09T10:14:33.164Z,2808.00
2022-08-09T10:15:51.099Z,2832.00
2022-08-09T10:16:54.742Z,2836.00
2022-08-09T10:17:05.259Z,2816.00
2022-08-09T10:17:56.319Z,2776.00
2022-08-09T10:18:37.213Z,2756.00
2022-08-09T10:19:26.194Z,2804.00
2022-08-09T10:20:16.229Z,2816.00
2022-08-09T10:21:07.173Z,2812.00
2022-08-09T10:21:56.164Z,2824.00
2022-08-09T10:22:46.183Z,2832.00
2022-08-09T10:23:36.150Z,2840.00
2022-08-09T10:24:35.637Z,2840.00
2022-08-09T10:25:20.809Z,2856.00
2022-08-09T10:26:10.819Z,2868.00
2022-08-09T10:26:57.126Z,2868.00
2022-08-09T10:27:56.752Z,2856.00
2022-08-09T10:28:37.397Z,2864.00